sensor_id;sensor_type;location;lat;lon;timestamp;temperature;humidity
6690;DHT22;3382;51.576;8.076;2022-12-18T00:00:47;-7.60;99.90
6690;DHT22;3382;51.576;8.076;2022-12-18T00:03:14;-8.50;99.90
6690;DHT22;3382;51.576;8.076;2022-12-18T00:05:50;-7.80;99.90
6690;DHT22;3382;51.576;8.076;2022-12-18T00:08:16;-7.60;99.90
6690;DHT22;3382;51.576;8.076;2022-12-18T00:10:42;-7.60;99.90
6690;DHT22;3382;51.576;8.076;2022-12-18T00:13:08;-8.00;99.90
6690;DHT22;3382;51.576;8.076;2022-12-18T00:15:35;-8.40;99.90
6690;DHT22;3382;51.576;8.076;2022-12-18T00:18:00;-7.80;99.90
6690;DHT22;3382;51.576;8.076;2022-12-18T00:20:26;-7.90;99.90
6690;DHT22;3382;51.576;8.076;2022-12-18T00:22:53;-8.60;99.90
6690;DHT22;3382;51.576;8.076;2022-12-18T00:25:18;-8.20;99.90
6690;DHT22;3382;51.576;8.076;2022-12-18T00:27:44;-7.90;99.90
6690;DHT22;3382;51.576;8.076;2022-12-18T00:30:10;-8.50;99.90
6690;DHT22;3382;51.576;8.076;2022-12-18T00:32:36;-7.60;99.90
6690;DHT22;3382;51.576;8.076;2022-12-18T00:35:01;-7.60;99.90
6690;DHT22;3382;51.576;8.076;2022-12-18T00:37:27;-7.60;99.90
6690;DHT22;3382;51.576;8.076;2022-12-18T00:39:52;-8.10;99.90
6690;DHT22;3382;51.576;8.076;2022-12-18T00:42:18;-7.60;99.90
6690;DHT22;3382;51.576;8.076;2022-12-18T00:45:03;-7.50;99.90
6690;DHT22;3382;51.576;8.076;2022-12-18T00:47:28;-7.30;99.90
6690;DHT22;3382;51.576;8.076;2022-12-18T00:49:54;-7.80;99.90
6690;DHT22;3382;51.576;8.076;2022-12-18T00:52:19;-7.80;99.90
6690;DHT22;3382;51.576;8.076;2022-12-18T00:54:45;-7.60;99.90
6690;DHT22;3382;51.576;8.076;2022-12-18T00:57:11;-7.10;99.90
6690;DHT22;3382;51.576;8.076;2022-12-18T00:59:36;-7.00;99.90
6690;DHT22;3382;51.576;8.076;2022-12-18T01:02:02;-6.80;99.90
6690;DHT22;3382;51.576;8.076;2022-12-18T01:04:27;-7.20;99.90
6690;DHT22;3382;51.576;8.076;2022-12-18T01:06:53;-7.50;99.90
6690;DHT22;3382;51.576;8.076;2022-12-18T01:09:19;-7.20;99.90
6690;DHT22;3382;51.576;8.076;2022-12-18T01:11:44;-6.70;99.90
6690;DHT22;3382;51.576;8.076;2022-12-18T01:14:10;-6.70;99.90
6690;DHT22;3382;51.576;8.076;2022-12-18T01:16:36;-6.40;99.90
6690;DHT22;3382;51.576;8.076;2022-12-18T01:19:01;-6.40;99.90
6690;DHT22;3382;51.576;8.076;2022-12-18T01:21:27;-6.60;99.90
6690;DHT22;3382;51.576;8.076;2022-12-18T01:23:54;-6.30;99.90
6690;DHT22;3382;51.576;8.076;2022-12-18T01:26:20;-6.60;99.90
6690;DHT22;3382;51.576;8.076;2022-12-18T01:28:46;-6.50;99.90
6690;DHT22;3382;51.576;8.076;2022-12-18T01:31:21;-6.30;99.90
6690;DHT22;3382;51.576;8.076;2022-12-18T01:33:47;-7.10;99.90
6690;DHT22;3382;51.576;8.076;2022-12-18T01:36:22;-6.30;99.90
6690;DHT22;3382;51.576;8.076;2022-12-18T01:38:48;-5.90;99.90
6690;DHT22;3382;51.576;8.076;2022-12-18T01:41:16;-7.20;99.90
6690;DHT22;3382;51.576;8.076;2022-12-18T01:43:49;-6.60;99.90
6690;DHT22;3382;51.576;8.076;2022-12-18T01:46:17;-6.50;99.90
6690;DHT22;3382;51.576;8.076;2022-12-18T01:48:43;-6.70;99.90
6690;DHT22;3382;51.576;8.076;2022-12-18T01:51:11;-6.40;99.90
6690;DHT22;3382;51.576;8.076;2022-12-18T01:53:39;-6.50;99.90
6690;DHT22;3382;51.576;8.076;2022-12-18T01:56:05;-7.10;99.90
6690;DHT22;3382;51.576;8.076;2022-12-18T01:58:46;-6.30;99.90
6690;DHT22;3382;51.576;8.076;2022-12-18T02:01:14;-6.50;99.90
6690;DHT22;3382;51.576;8.076;2022-12-18T02:03:43;-6.80;99.90
6690;DHT22;3382;51.576;8.076;2022-12-18T02:06:20;-6.20;99.90
6690;DHT22;3382;51.576;8.076;2022-12-18T02:17:18;-6.80;99.90
6690;DHT22;3382;51.576;8.076;2022-12-18T02:20:16;-6.80;99.90
6690;DHT22;3382;51.576;8.076;2022-12-18T02:23:06;-6.70;99.90
6690;DHT22;3382;51.576;8.076;2022-12-18T02:26:10;-7.00;99.90
6690;DHT22;3382;51.576;8.076;2022-12-18T02:29:03;-6.70;99.90
6690;DHT22;3382;51.576;8.076;2022-12-18T02:31:31;-7.00;99.90
6690;DHT22;3382;51.576;8.076;2022-12-18T02:34:02;-7.20;99.90
6690;DHT22;3382;51.576;8.076;2022-12-18T02:36:30;-6.70;99.90
6690;DHT22;3382;51.576;8.076;2022-12-18T02:38:57;-6.70;99.90
6690;DHT22;3382;51.576;8.076;2022-12-18T02:41:25;-6.80;99.90
6690;DHT22;3382;51.576;8.076;2022-12-18T02:43:56;-7.40;99.90
6690;DHT22;3382;51.576;8.076;2022-12-18T02:46:43;-7.60;99.90
6690;DHT22;3382;51.576;8.076;2022-12-18T02:49:48;-7.10;99.90
6690;DHT22;3382;51.576;8.076;2022-12-18T02:52:12;-7.10;99.90
6690;DHT22;3382;51.576;8.076;2022-12-18T02:54:55;-7.00;99.90
6690;DHT22;3382;51.576;8.076;2022-12-18T02:57:45;-7.00;99.90
6690;DHT22;3382;51.576;8.076;2022-12-18T03:00:19;-6.80;99.90
6690;DHT22;3382;51.576;8.076;2022-12-18T03:08:21;-6.20;99.90
6690;DHT22;3382;51.576;8.076;2022-12-18T03:11:04;-7.20;99.90
6690;DHT22;3382;51.576;8.076;2022-12-18T03:13:39;-6.50;99.90
6690;DHT22;3382;51.576;8.076;2022-12-18T03:16:09;-6.60;99.90
6690;DHT22;3382;51.576;8.076;2022-12-18T03:21:06;-7.00;99.90
6690;DHT22;3382;51.576;8.076;2022-12-18T03:23:44;-6.70;99.90
6690;DHT22;3382;51.576;8.076;2022-12-18T03:26:16;-6.00;99.90
6690;DHT22;3382;51.576;8.076;2022-12-18T03:28:47;-6.30;99.90
6690;DHT22;3382;51.576;8.076;2022-12-18T03:31:14;-5.90;99.90
6690;DHT22;3382;51.576;8.076;2022-12-18T03:33:58;-6.20;99.90
6690;DHT22;3382;51.576;8.076;2022-12-18T03:36:24;-6.10;99.90
6690;DHT22;3382;51.576;8.076;2022-12-18T03:38:51;-6.40;99.90
6690;DHT22;3382;51.576;8.076;2022-12-18T03:41:37;-5.90;99.90
6690;DHT22;3382;51.576;8.076;2022-12-18T03:44:35;-6.60;99.90
6690;DHT22;3382;51.576;8.076;2022-12-18T03:47:05;-6.90;99.90
6690;DHT22;3382;51.576;8.076;2022-12-18T03:49:53;-6.00;99.90
6690;DHT22;3382;51.576;8.076;2022-12-18T03:52:30;-5.90;99.90
6690;DHT22;3382;51.576;8.076;2022-12-18T03:54:59;-6.50;99.90
6690;DHT22;3382;51.576;8.076;2022-12-18T03:57:28;-6.00;99.90
6690;DHT22;3382;51.576;8.076;2022-12-18T04:00:00;-6.30;99.90
6690;DHT22;3382;51.576;8.076;2022-12-18T04:02:28;-6.20;99.90
6690;DHT22;3382;51.576;8.076;2022-12-18T04:04:58;-6.10;99.90
6690;DHT22;3382;51.576;8.076;2022-12-18T04:07:25;-6.90;99.90
6690;DHT22;3382;51.576;8.076;2022-12-18T04:09:53;-6.00;99.90
6690;DHT22;3382;51.576;8.076;2022-12-18T04:12:20;-6.70;99.90
6690;DHT22;3382;51.576;8.076;2022-12-18T04:14:45;-5.70;99.90
6690;DHT22;3382;51.576;8.076;2022-12-18T04:17:11;-6.10;99.90
6690;DHT22;3382;51.576;8.076;2022-12-18T04:19:36;-5.90;99.90
6690;DHT22;3382;51.576;8.076;2022-12-18T04:22:02;-6.40;99.90
6690;DHT22;3382;51.576;8.076;2022-12-18T04:24:27;-6.20;99.90
6690;DHT22;3382;51.576;8.076;2022-12-18T04:26:53;-6.40;99.90
6690;DHT22;3382;51.576;8.076;2022-12-18T04:29:19;-6.30;99.90
6690;DHT22;3382;51.576;8.076;2022-12-18T04:31:44;-6.20;99.90
6690;DHT22;3382;51.576;8.076;2022-12-18T04:34:10;-6.80;99.90
6690;DHT22;3382;51.576;8.076;2022-12-18T04:36:35;-6.20;99.90
6690;DHT22;3382;51.576;8.076;2022-12-18T04:39:01;-5.60;99.90
6690;DHT22;3382;51.576;8.076;2022-12-18T04:41:26;-6.10;99.90
6690;DHT22;3382;51.576;8.076;2022-12-18T04:43:52;-5.90;99.90
6690;DHT22;3382;51.576;8.076;2022-12-18T04:46:18;-6.20;99.90
6690;DHT22;3382;51.576;8.076;2022-12-18T04:48:45;-6.00;99.90
6690;DHT22;3382;51.576;8.076;2022-12-18T04:51:12;-6.20;99.90
6690;DHT22;3382;51.576;8.076;2022-12-18T04:53:37;-6.20;99.90
6690;DHT22;3382;51.576;8.076;2022-12-18T04:56:08;-6.90;99.90
6690;DHT22;3382;51.576;8.076;2022-12-18T04:58:35;-6.40;99.90
6690;DHT22;3382;51.576;8.076;2022-12-18T05:01:01;-6.40;99.90
6690;DHT22;3382;51.576;8.076;2022-12-18T05:03:26;-6.30;99.90
6690;DHT22;3382;51.576;8.076;2022-12-18T05:05:52;-6.80;99.90
6690;DHT22;3382;51.576;8.076;2022-12-18T05:08:18;-6.80;99.90
6690;DHT22;3382;51.576;8.076;2022-12-18T05:10:44;-6.30;99.90
6690;DHT22;3382;51.576;8.076;2022-12-18T05:13:10;-6.70;99.90
6690;DHT22;3382;51.576;8.076;2022-12-18T05:15:36;-6.00;99.90
6690;DHT22;3382;51.576;8.076;2022-12-18T05:18:02;-6.30;99.90
6690;DHT22;3382;51.576;8.076;2022-12-18T05:20:28;-6.00;99.90
6690;DHT22;3382;51.576;8.076;2022-12-18T05:22:54;-6.20;99.90
6690;DHT22;3382;51.576;8.076;2022-12-18T05:25:21;-6.90;99.90
6690;DHT22;3382;51.576;8.076;2022-12-18T05:27:47;-6.60;99.90
6690;DHT22;3382;51.576;8.076;2022-12-18T05:30:13;-6.00;99.90
6690;DHT22;3382;51.576;8.076;2022-12-18T05:32:40;-7.00;99.90
6690;DHT22;3382;51.576;8.076;2022-12-18T05:35:07;-6.50;99.90
6690;DHT22;3382;51.576;8.076;2022-12-18T05:37:33;-6.10;99.90
6690;DHT22;3382;51.576;8.076;2022-12-18T05:39:59;-6.60;99.90
6690;DHT22;3382;51.576;8.076;2022-12-18T05:42:25;-6.60;99.90
6690;DHT22;3382;51.576;8.076;2022-12-18T05:44:50;-7.10;99.90
6690;DHT22;3382;51.576;8.076;2022-12-18T05:47:16;-6.50;99.90
6690;DHT22;3382;51.576;8.076;2022-12-18T05:49:41;-6.80;99.90
6690;DHT22;3382;51.576;8.076;2022-12-18T05:52:07;-6.00;99.90
6690;DHT22;3382;51.576;8.076;2022-12-18T05:54:32;-6.20;99.90
6690;DHT22;3382;51.576;8.076;2022-12-18T05:56:58;-6.20;99.90
6690;DHT22;3382;51.576;8.076;2022-12-18T05:59:24;-6.20;99.90
6690;DHT22;3382;51.576;8.076;2022-12-18T06:01:49;-6.20;99.90
6690;DHT22;3382;51.576;8.076;2022-12-18T06:04:15;-6.40;99.90
6690;DHT22;3382;51.576;8.076;2022-12-18T06:06:41;-6.50;99.90
6690;DHT22;3382;51.576;8.076;2022-12-18T06:09:06;-7.00;99.90
6690;DHT22;3382;51.576;8.076;2022-12-18T06:11:35;-6.40;99.90
6690;DHT22;3382;51.576;8.076;2022-12-18T06:14:02;-6.40;99.90
6690;DHT22;3382;51.576;8.076;2022-12-18T06:16:30;-6.50;99.90
6690;DHT22;3382;51.576;8.076;2022-12-18T06:18:56;-6.80;99.90
6690;DHT22;3382;51.576;8.076;2022-12-18T06:21:22;-6.70;99.90
6690;DHT22;3382;51.576;8.076;2022-12-18T06:23:48;-6.80;99.90
6690;DHT22;3382;51.576;8.076;2022-12-18T06:26:14;-6.20;99.90
6690;DHT22;3382;51.576;8.076;2022-12-18T06:28:40;-6.70;99.90
6690;DHT22;3382;51.576;8.076;2022-12-18T06:31:07;-6.80;99.90
6690;DHT22;3382;51.576;8.076;2022-12-18T06:33:33;-6.40;99.90
6690;DHT22;3382;51.576;8.076;2022-12-18T06:36:01;-6.30;99.90
6690;DHT22;3382;51.576;8.076;2022-12-18T06:38:27;-6.50;99.90
6690;DHT22;3382;51.576;8.076;2022-12-18T06:40:52;-7.00;99.90
6690;DHT22;3382;51.576;8.076;2022-12-18T06:43:18;-6.40;99.90
6690;DHT22;3382;51.576;8.076;2022-12-18T06:45:44;-6.40;99.90
6690;DHT22;3382;51.576;8.076;2022-12-18T06:48:09;-6.00;99.90
6690;DHT22;3382;51.576;8.076;2022-12-18T06:50:35;-6.20;99.90
6690;DHT22;3382;51.576;8.076;2022-12-18T06:53:00;-6.50;99.90
6690;DHT22;3382;51.576;8.076;2022-12-18T06:55:26;-6.30;99.90
6690;DHT22;3382;51.576;8.076;2022-12-18T06:57:51;-6.60;99.90
6690;DHT22;3382;51.576;8.076;2022-12-18T07:00:17;-6.50;99.90
6690;DHT22;3382;51.576;8.076;2022-12-18T07:02:43;-6.30;99.90
6690;DHT22;3382;51.576;8.076;2022-12-18T07:05:09;-6.20;99.90
6690;DHT22;3382;51.576;8.076;2022-12-18T07:07:35;-6.80;99.90
6690;DHT22;3382;51.576;8.076;2022-12-18T07:10:01;-6.50;99.90
6690;DHT22;3382;51.576;8.076;2022-12-18T07:12:27;-6.40;99.90
6690;DHT22;3382;51.576;8.076;2022-12-18T07:14:52;-7.20;99.90
6690;DHT22;3382;51.576;8.076;2022-12-18T07:17:18;-7.30;99.90
6690;DHT22;3382;51.576;8.076;2022-12-18T07:19:43;-6.60;99.90
6690;DHT22;3382;51.576;8.076;2022-12-18T07:22:09;-6.30;99.90
6690;DHT22;3382;51.576;8.076;2022-12-18T07:24:35;-7.10;99.90
6690;DHT22;3382;51.576;8.076;2022-12-18T07:27:00;-6.20;99.90
6690;DHT22;3382;51.576;8.076;2022-12-18T07:29:26;-6.10;99.90
6690;DHT22;3382;51.576;8.076;2022-12-18T07:31:51;-6.40;99.90
6690;DHT22;3382;51.576;8.076;2022-12-18T07:34:17;-6.40;99.90
6690;DHT22;3382;51.576;8.076;2022-12-18T07:36:43;-7.00;99.90
6690;DHT22;3382;51.576;8.076;2022-12-18T07:39:10;-6.80;99.90
6690;DHT22;3382;51.576;8.076;2022-12-18T07:41:36;-6.50;99.90
6690;DHT22;3382;51.576;8.076;2022-12-18T07:44:02;-5.70;99.90
6690;DHT22;3382;51.576;8.076;2022-12-18T07:46:28;-5.60;99.90
6690;DHT22;3382;51.576;8.076;2022-12-18T07:48:53;-5.80;99.90
6690;DHT22;3382;51.576;8.076;2022-12-18T07:51:19;-5.80;99.90
6690;DHT22;3382;51.576;8.076;2022-12-18T07:53:45;-5.00;99.90
6690;DHT22;3382;51.576;8.076;2022-12-18T07:56:12;-5.40;99.90
6690;DHT22;3382;51.576;8.076;2022-12-18T07:58:37;-4.70;99.90
6690;DHT22;3382;51.576;8.076;2022-12-18T08:03:30;-4.60;99.90
6690;DHT22;3382;51.576;8.076;2022-12-18T08:06:03;-5.30;99.90
6690;DHT22;3382;51.576;8.076;2022-12-18T08:08:29;-4.50;99.90
6690;DHT22;3382;51.576;8.076;2022-12-18T08:10:58;-5.10;99.90
6690;DHT22;3382;51.576;8.076;2022-12-18T08:13:24;-5.10;99.90
6690;DHT22;3382;51.576;8.076;2022-12-18T08:16:01;-4.60;99.90
6690;DHT22;3382;51.576;8.076;2022-12-18T08:18:27;-4.60;99.90
6690;DHT22;3382;51.576;8.076;2022-12-18T08:20:54;-5.80;99.90
6690;DHT22;3382;51.576;8.076;2022-12-18T08:23:20;-5.10;99.90
6690;DHT22;3382;51.576;8.076;2022-12-18T08:25:46;-5.50;99.90
6690;DHT22;3382;51.576;8.076;2022-12-18T08:28:12;-5.30;99.90
6690;DHT22;3382;51.576;8.076;2022-12-18T08:30:38;-5.50;99.90
6690;DHT22;3382;51.576;8.076;2022-12-18T08:33:04;-5.30;99.90
6690;DHT22;3382;51.576;8.076;2022-12-18T08:35:29;-5.30;99.90
6690;DHT22;3382;51.576;8.076;2022-12-18T08:37:55;-4.80;99.90
6690;DHT22;3382;51.576;8.076;2022-12-18T08:40:21;-5.30;99.90
6690;DHT22;3382;51.576;8.076;2022-12-18T08:42:46;-4.70;99.90
6690;DHT22;3382;51.576;8.076;2022-12-18T08:45:34;-5.10;99.90
6690;DHT22;3382;51.576;8.076;2022-12-18T08:47:59;-4.50;99.90
6690;DHT22;3382;51.576;8.076;2022-12-18T08:50:25;-5.00;99.90
6690;DHT22;3382;51.576;8.076;2022-12-18T08:52:50;-4.10;99.90
6690;DHT22;3382;51.576;8.076;2022-12-18T08:55:16;-4.10;99.90
6690;DHT22;3382;51.576;8.076;2022-12-18T08:57:41;-4.70;99.90
6690;DHT22;3382;51.576;8.076;2022-12-18T09:00:08;-3.90;99.90
6690;DHT22;3382;51.576;8.076;2022-12-18T09:02:33;-4.10;99.90
6690;DHT22;3382;51.576;8.076;2022-12-18T09:04:59;-4.00;99.90
6690;DHT22;3382;51.576;8.076;2022-12-18T09:07:25;-4.40;99.90
6690;DHT22;3382;51.576;8.076;2022-12-18T09:09:50;-4.40;99.90
6690;DHT22;3382;51.576;8.076;2022-12-18T09:12:16;-3.60;99.90
6690;DHT22;3382;51.576;8.076;2022-12-18T09:14:42;-3.50;99.90
6690;DHT22;3382;51.576;8.076;2022-12-18T09:17:07;-3.40;99.90
6690;DHT22;3382;51.576;8.076;2022-12-18T09:19:33;-3.30;99.90
6690;DHT22;3382;51.576;8.076;2022-12-18T09:21:58;-3.20;99.90
6690;DHT22;3382;51.576;8.076;2022-12-18T09:24:24;-2.50;99.90
6690;DHT22;3382;51.576;8.076;2022-12-18T09:26:53;-2.50;99.90
6690;DHT22;3382;51.576;8.076;2022-12-18T09:29:20;-3.00;99.90
6690;DHT22;3382;51.576;8.076;2022-12-18T09:31:45;-3.00;99.90
6690;DHT22;3382;51.576;8.076;2022-12-18T09:34:11;-2.90;99.90
6690;DHT22;3382;51.576;8.076;2022-12-18T09:36:37;-2.90;99.90
6690;DHT22;3382;51.576;8.076;2022-12-18T09:39:03;-2.80;99.90
6690;DHT22;3382;51.576;8.076;2022-12-18T09:46:40;-2.50;99.90
6690;DHT22;3382;51.576;8.076;2022-12-18T09:49:13;-2.00;99.90
6690;DHT22;3382;51.576;8.076;2022-12-18T09:51:50;-2.60;99.90
6690;DHT22;3382;51.576;8.076;2022-12-18T09:54:26;-1.60;99.90
6690;DHT22;3382;51.576;8.076;2022-12-18T09:56:53;-2.20;99.90
6690;DHT22;3382;51.576;8.076;2022-12-18T09:59:24;-2.20;99.90
6690;DHT22;3382;51.576;8.076;2022-12-18T10:01:51;-2.20;99.90
6690;DHT22;3382;51.576;8.076;2022-12-18T10:04:16;-2.20;99.90
6690;DHT22;3382;51.576;8.076;2022-12-18T10:06:58;-1.70;99.90
6690;DHT22;3382;51.576;8.076;2022-12-18T10:09:41;-2.00;99.90
6690;DHT22;3382;51.576;8.076;2022-12-18T10:12:22;-1.90;99.90
6690;DHT22;3382;51.576;8.076;2022-12-18T10:15:16;-1.90;99.90
6690;DHT22;3382;51.576;8.076;2022-12-18T10:17:53;-1.80;99.90
6690;DHT22;3382;51.576;8.076;2022-12-18T10:20:38;-1.70;99.90
6690;DHT22;3382;51.576;8.076;2022-12-18T10:23:25;-1.60;99.90
6690;DHT22;3382;51.576;8.076;2022-12-18T10:26:12;-1.50;99.90
6690;DHT22;3382;51.576;8.076;2022-12-18T10:28:40;-0.80;99.90
6690;DHT22;3382;51.576;8.076;2022-12-18T10:31:17;-1.00;99.90
6690;DHT22;3382;51.576;8.076;2022-12-18T10:33:43;-1.00;99.90
6690;DHT22;3382;51.576;8.076;2022-12-18T10:36:09;-1.00;99.90
6690;DHT22;3382;51.576;8.076;2022-12-18T10:38:35;-1.00;99.90
6690;DHT22;3382;51.576;8.076;2022-12-18T10:41:05;-0.90;99.90
6690;DHT22;3382;51.576;8.076;2022-12-18T10:43:38;-0.90;99.90
6690;DHT22;3382;51.576;8.076;2022-12-18T10:48:36;-0.70;99.90
6690;DHT22;3382;51.576;8.076;2022-12-18T10:51:09;-0.50;99.90
6690;DHT22;3382;51.576;8.076;2022-12-18T10:53:36;0.90;99.90
6690;DHT22;3382;51.576;8.076;2022-12-18T10:56:04;3.20;99.90
6690;DHT22;3382;51.576;8.076;2022-12-18T10:58:38;2.10;99.90
6690;DHT22;3382;51.576;8.076;2022-12-18T11:03:34;0.60;99.90
6690;DHT22;3382;51.576;8.076;2022-12-18T11:06:04;0.30;99.90
6690;DHT22;3382;51.576;8.076;2022-12-18T11:08:30;0.10;99.90
6690;DHT22;3382;51.576;8.076;2022-12-18T11:10:56;0.00;99.90
6690;DHT22;3382;51.576;8.076;2022-12-18T11:13:23;-0.10;99.90
6690;DHT22;3382;51.576;8.076;2022-12-18T11:15:50;0.00;99.90
6690;DHT22;3382;51.576;8.076;2022-12-18T11:18:29;0.00;99.90
6690;DHT22;3382;51.576;8.076;2022-12-18T11:20:59;0.00;99.90
6690;DHT22;3382;51.576;8.076;2022-12-18T11:23:27;0.00;99.90
6690;DHT22;3382;51.576;8.076;2022-12-18T11:25:58;0.00;99.90
6690;DHT22;3382;51.576;8.076;2022-12-18T11:28:43;0.00;99.90
6690;DHT22;3382;51.576;8.076;2022-12-18T11:36:46;0.20;99.90
6690;DHT22;3382;51.576;8.076;2022-12-18T11:44:51;0.30;99.90
6690;DHT22;3382;51.576;8.076;2022-12-18T11:47:29;0.30;99.90
6690;DHT22;3382;51.576;8.076;2022-12-18T11:50:00;0.40;99.90
6690;DHT22;3382;51.576;8.076;2022-12-18T11:52:34;0.40;99.90
6690;DHT22;3382;51.576;8.076;2022-12-18T11:55:21;0.40;99.90
6690;DHT22;3382;51.576;8.076;2022-12-18T12:00:48;0.40;99.90
6690;DHT22;3382;51.576;8.076;2022-12-18T12:03:27;0.40;99.90
6690;DHT22;3382;51.576;8.076;2022-12-18T12:09:05;0.50;99.90
6690;DHT22;3382;51.576;8.076;2022-12-18T12:17:14;0.60;99.90
6690;DHT22;3382;51.576;8.076;2022-12-18T12:20:13;0.60;99.90
6690;DHT22;3382;51.576;8.076;2022-12-18T12:23:06;0.60;99.90
6690;DHT22;3382;51.576;8.076;2022-12-18T12:34:03;0.70;99.90
6690;DHT22;3382;51.576;8.076;2022-12-18T12:39:13;0.80;99.90
6690;DHT22;3382;51.576;8.076;2022-12-18T12:41:41;1.30;99.90
6690;DHT22;3382;51.576;8.076;2022-12-18T12:44:33;2.50;99.90
6690;DHT22;3382;51.576;8.076;2022-12-18T12:47:11;1.90;99.90
6690;DHT22;3382;51.576;8.076;2022-12-18T12:49:39;1.60;99.90
6690;DHT22;3382;51.576;8.076;2022-12-18T12:52:10;1.30;99.90
6690;DHT22;3382;51.576;8.076;2022-12-18T12:54:38;1.30;99.90
6690;DHT22;3382;51.576;8.076;2022-12-18T13:08:08;1.20;99.90
6690;DHT22;3382;51.576;8.076;2022-12-18T13:10:39;1.10;99.90
6690;DHT22;3382;51.576;8.076;2022-12-18T13:13:13;1.70;99.90
6690;DHT22;3382;51.576;8.076;2022-12-18T13:16:02;1.10;99.90
6690;DHT22;3382;51.576;8.076;2022-12-18T13:18:28;1.10;99.90
6690;DHT22;3382;51.576;8.076;2022-12-18T13:26:32;1.10;99.90
6690;DHT22;3382;51.576;8.076;2022-12-18T13:36:44;1.20;99.90
6690;DHT22;3382;51.576;8.076;2022-12-18T13:41:45;1.20;99.90
6690;DHT22;3382;51.576;8.076;2022-12-18T13:46:56;1.30;99.90
6690;DHT22;3382;51.576;8.076;2022-12-18T13:49:46;1.30;99.90
6690;DHT22;3382;51.576;8.076;2022-12-18T13:52:18;1.30;99.90
6690;DHT22;3382;51.576;8.076;2022-12-18T13:54:49;1.30;99.90
6690;DHT22;3382;51.576;8.076;2022-12-18T13:59:59;1.30;99.90
6690;DHT22;3382;51.576;8.076;2022-12-18T14:02:37;1.30;99.90
6690;DHT22;3382;51.576;8.076;2022-12-18T14:05:03;1.40;99.90
6690;DHT22;3382;51.576;8.076;2022-12-18T14:07:29;1.40;99.90
6690;DHT22;3382;51.576;8.076;2022-12-18T14:09:58;1.40;99.90
6690;DHT22;3382;51.576;8.076;2022-12-18T14:12:29;1.30;99.90
6690;DHT22;3382;51.576;8.076;2022-12-18T14:18:01;1.50;99.90
6690;DHT22;3382;51.576;8.076;2022-12-18T14:20:31;1.40;99.90
6690;DHT22;3382;51.576;8.076;2022-12-18T14:22:57;1.40;99.90
6690;DHT22;3382;51.576;8.076;2022-12-18T14:25:25;1.30;99.90
6690;DHT22;3382;51.576;8.076;2022-12-18T14:28:15;1.30;99.90
6690;DHT22;3382;51.576;8.076;2022-12-18T14:30:42;1.40;99.90
6690;DHT22;3382;51.576;8.076;2022-12-18T14:35:42;1.40;99.90
6690;DHT22;3382;51.576;8.076;2022-12-18T14:43:29;1.30;99.90
6690;DHT22;3382;51.576;8.076;2022-12-18T14:45:56;1.30;99.90
6690;DHT22;3382;51.576;8.076;2022-12-18T14:51:15;1.60;99.90
6690;DHT22;3382;51.576;8.076;2022-12-18T14:54:14;1.60;99.90
6690;DHT22;3382;51.576;8.076;2022-12-18T14:56:46;2.10;99.90
6690;DHT22;3382;51.576;8.076;2022-12-18T14:59:21;1.40;99.90
6690;DHT22;3382;51.576;8.076;2022-12-18T15:01:57;1.30;99.90
6690;DHT22;3382;51.576;8.076;2022-12-18T15:07:22;1.20;99.90
6690;DHT22;3382;51.576;8.076;2022-12-18T15:13:07;1.20;99.90
6690;DHT22;3382;51.576;8.076;2022-12-18T15:33:31;1.10;99.90
6690;DHT22;3382;51.576;8.076;2022-12-18T15:36:03;1.10;99.90
6690;DHT22;3382;51.576;8.076;2022-12-18T15:38:29;1.10;99.90
6690;DHT22;3382;51.576;8.076;2022-12-18T15:40:55;1.10;99.90
6690;DHT22;3382;51.576;8.076;2022-12-18T15:43:24;1.10;99.90
6690;DHT22;3382;51.576;8.076;2022-12-18T15:46:20;1.10;99.90
6690;DHT22;3382;51.576;8.076;2022-12-18T15:48:48;1.60;99.90
6690;DHT22;3382;51.576;8.076;2022-12-18T15:51:23;1.60;99.90
6690;DHT22;3382;51.576;8.076;2022-12-18T15:53:52;1.60;99.90
6690;DHT22;3382;51.576;8.076;2022-12-18T15:56:18;1.50;99.90
6690;DHT22;3382;51.576;8.076;2022-12-18T15:59:13;1.40;99.90
6690;DHT22;3382;51.576;8.076;2022-12-18T16:01:39;1.40;99.90
6690;DHT22;3382;51.576;8.076;2022-12-18T16:04:05;1.40;99.90
6690;DHT22;3382;51.576;8.076;2022-12-18T16:06:31;1.40;99.90
6690;DHT22;3382;51.576;8.076;2022-12-18T16:08:56;1.40;99.90
6690;DHT22;3382;51.576;8.076;2022-12-18T16:11:27;1.30;99.90
6690;DHT22;3382;51.576;8.076;2022-12-18T16:14:22;1.70;99.90
6690;DHT22;3382;51.576;8.076;2022-12-18T16:16:51;1.80;99.90
6690;DHT22;3382;51.576;8.076;2022-12-18T16:19:17;2.30;99.90
6690;DHT22;3382;51.576;8.076;2022-12-18T16:21:44;2.10;99.90
6690;DHT22;3382;51.576;8.076;2022-12-18T16:24:28;2.00;99.90
6690;DHT22;3382;51.576;8.076;2022-12-18T16:26:56;1.90;99.90
6690;DHT22;3382;51.576;8.076;2022-12-18T16:29:23;1.80;99.90
6690;DHT22;3382;51.576;8.076;2022-12-18T16:31:58;1.70;99.90
6690;DHT22;3382;51.576;8.076;2022-12-18T16:34:29;1.70;99.90
6690;DHT22;3382;51.576;8.076;2022-12-18T16:37:00;1.70;99.90
6690;DHT22;3382;51.576;8.076;2022-12-18T16:39:26;1.90;99.90
6690;DHT22;3382;51.576;8.076;2022-12-18T16:41:52;1.90;99.90
6690;DHT22;3382;51.576;8.076;2022-12-18T16:44:18;2.00;99.90
6690;DHT22;3382;51.576;8.076;2022-12-18T16:46:44;2.00;99.90
6690;DHT22;3382;51.576;8.076;2022-12-18T16:49:14;2.10;99.90
6690;DHT22;3382;51.576;8.076;2022-12-18T16:51:40;2.30;99.90
6690;DHT22;3382;51.576;8.076;2022-12-18T16:54:06;2.40;99.90
6690;DHT22;3382;51.576;8.076;2022-12-18T16:56:32;2.60;99.90
6690;DHT22;3382;51.576;8.076;2022-12-18T16:58:59;2.70;99.90
6690;DHT22;3382;51.576;8.076;2022-12-18T17:01:27;2.80;99.90
6690;DHT22;3382;51.576;8.076;2022-12-18T17:03:59;2.90;99.90
6690;DHT22;3382;51.576;8.076;2022-12-18T17:06:26;3.10;99.90
6690;DHT22;3382;51.576;8.076;2022-12-18T17:08:56;3.20;99.90
6690;DHT22;3382;51.576;8.076;2022-12-18T17:11:24;3.30;99.90
6690;DHT22;3382;51.576;8.076;2022-12-18T17:13:50;3.40;99.90
6690;DHT22;3382;51.576;8.076;2022-12-18T17:16:15;3.60;99.90
6690;DHT22;3382;51.576;8.076;2022-12-18T17:18:42;3.60;99.90
6690;DHT22;3382;51.576;8.076;2022-12-18T17:21:09;3.70;99.90
6690;DHT22;3382;51.576;8.076;2022-12-18T17:23:35;3.80;99.90
6690;DHT22;3382;51.576;8.076;2022-12-18T17:26:02;3.80;99.90
6690;DHT22;3382;51.576;8.076;2022-12-18T17:28:29;3.80;99.90
6690;DHT22;3382;51.576;8.076;2022-12-18T17:30:55;3.80;99.90
6690;DHT22;3382;51.576;8.076;2022-12-18T17:33:22;3.90;99.90
6690;DHT22;3382;51.576;8.076;2022-12-18T17:35:47;3.90;99.90
6690;DHT22;3382;51.576;8.076;2022-12-18T17:38:13;4.00;99.90
6690;DHT22;3382;51.576;8.076;2022-12-18T17:40:39;4.00;99.90
6690;DHT22;3382;51.576;8.076;2022-12-18T17:43:06;4.00;99.90
6690;DHT22;3382;51.576;8.076;2022-12-18T17:45:35;4.10;99.90
6690;DHT22;3382;51.576;8.076;2022-12-18T17:48:02;4.10;99.90
6690;DHT22;3382;51.576;8.076;2022-12-18T17:50:27;4.10;99.90
6690;DHT22;3382;51.576;8.076;2022-12-18T17:52:56;4.10;99.90
6690;DHT22;3382;51.576;8.076;2022-12-18T17:55:23;4.10;99.90
6690;DHT22;3382;51.576;8.076;2022-12-18T17:57:48;4.10;99.90
6690;DHT22;3382;51.576;8.076;2022-12-18T18:00:14;4.00;99.90
6690;DHT22;3382;51.576;8.076;2022-12-18T18:02:40;4.00;99.90
6690;DHT22;3382;51.576;8.076;2022-12-18T18:05:06;4.00;99.90
6690;DHT22;3382;51.576;8.076;2022-12-18T18:07:31;3.90;99.90
6690;DHT22;3382;51.576;8.076;2022-12-18T18:09:57;3.90;99.90
6690;DHT22;3382;51.576;8.076;2022-12-18T18:12:23;3.90;99.90
6690;DHT22;3382;51.576;8.076;2022-12-18T18:15:07;3.90;99.90
6690;DHT22;3382;51.576;8.076;2022-12-18T18:17:33;3.90;99.90
6690;DHT22;3382;51.576;8.076;2022-12-18T18:19:59;3.90;99.90
6690;DHT22;3382;51.576;8.076;2022-12-18T18:22:24;3.90;99.90
6690;DHT22;3382;51.576;8.076;2022-12-18T18:24:50;3.90;99.90
6690;DHT22;3382;51.576;8.076;2022-12-18T18:27:15;3.90;99.90
6690;DHT22;3382;51.576;8.076;2022-12-18T18:29:41;3.90;99.90
6690;DHT22;3382;51.576;8.076;2022-12-18T18:32:07;3.90;99.90
6690;DHT22;3382;51.576;8.076;2022-12-18T18:34:32;3.90;99.90